Terminal Aerodrome Forecast
Issued by NWS Wilmington, OH

Current Version | Previous Version | Graphics & Text | Print | Product List | Glossary On
Versions: 1 2 3 4 5 6 7 8 9 10 11 12 13 14 15 16 17 18 19 20 21 22 23
560
FTUS41 KILN 030155 AAA
TAFILN
TAF AMD
KILN 030155Z 0302/0324 28008KT P6SM OVC035
     FM030900 28006KT P6SM OVC025
     FM031700 27005KT P6SM BKN035=

USA.gov is the U.S. government's official web portal to all federal, state and local government web resources and services.